Aviation Digital Data Service (ADDS)

Output produced by METARs form (0417 UTC 26 June 2019)
found at http://www.aviationweather.gov/metar/data/
 
Forecast for: GMAD (AL MASSIRA MC , MA)
Text: TAF GMAD 252300Z 2600/2706 12006KT 8000 FEW008 SCT016
Forecast period: 0000 to 0400 UTC 26 June 2019
Forecast type: FROM: standard forecast or significant change
Winds: from the ESE (120 degrees) at 7 MPH (6 knots; 3.1 m/s)
Visibility: 5 miles (8 km)
Ceiling: at least 12,000 feet AGL
Clouds: few clouds at 800 feet AGL
scattered clouds at 1600 feet AGL
Weather: no significant weather forecast for this period
Text: BECMG 2604/2608 BKN020
Forecast period: 0400 UTC 26 June 2019 to 0600 UTC 27 June 2019
Forecast type: BECOMING: Conditions expected to become as follows by 0800 UTC 26 June 2019
Winds: from the ESE (120 degrees) at 7 MPH (6 knots; 3.1 m/s)
Visibility: 5 miles (8 km)
Ceiling: 2000 feet AGL
Clouds: broken clouds at 2000 feet AGL
Weather: no significant weather forecast for this period